Flight Track Log - Related Links

Times and Time Zones

All times are in EDT time to prevent confusion due to time zone crossing. See the ASQ5941 flight status page for this flight to view local times or setup timezone preferences in your user account.

Time Position Orientation Groundspeed Altitude Reporting Facility
EDT Latitude Longitude Course Direction KTS MPH feet Rate Location/Type
Sun 03:01:03 PM 42.0333 -87.9333 90° East 202 232 3,700  Level Chicago TRACON
Sun 03:03:00 PM 42.0630 -87.2827 78° East  Level FlightAware Approximate
Sun 03:03:02 PM 42.1225 -87.8161 44° Northeast 250 288 6,900  Level Chicago Center
Sun 03:04:00 PM 42.0873 -87.1263 77° East  Level FlightAware Approximate
Sun 03:04:04 PM 42.1297 -87.7139 85° East 274 315 9,100  Level Chicago Center
Sun 03:05:00 PM 42.1039 -86.9688 80° East  Level FlightAware Approximate
Sun 03:05:06 PM 42.1258 -87.6003 93° East 297 342 10,600  Level Chicago Center
Sun 03:06:00 PM 42.1167 -86.8103 90° East  Level FlightAware Approximate
Sun 03:06:08 PM 42.1225 -87.4800 92° East 317 365 12,500  Level Chicago Center
Sun 03:07:10 PM 42.1192 -87.3278 92° East 337 388 14,000 1,210 Climbing Chicago Center
Sun 03:08:12 PM 42.1161 -87.1889 92° East 363 418 15,000 968 Climbing Chicago Center
Sun 03:09:14 PM 42.1125 -87.0431 92° East 386 444 16,000 1,016 Climbing Chicago Center
Sun 03:10:16 PM 42.1178 -86.8947 87° East 395 455 17,100 968 Climbing Chicago Center
Sun 03:11:18 PM 42.1233 -86.7467 87° East 397 457 18,000 1,016 Climbing Chicago Center
Sun 03:12:20 PM 42.1294 -86.5803 87° East 411 473 19,200 1,065 Climbing Chicago Center
Sun 03:13:22 PM 42.1350 -86.4247 87° East 415 478 20,200 1,016 Climbing Chicago Center
Sun 03:14:24 PM 42.1386 -86.2667 88° East 421 484 21,300 1,065 Climbing Chicago Center
Sun 03:15:26 PM 42.1444 -86.1078 87° East 423 487 22,400 1,113 Climbing Chicago Center
Sun 03:16:28 PM 42.1419 -85.9278 91° East 427 491 23,600 1,065 Climbing Chicago Center
Sun 03:17:30 PM 42.1406 -85.7681 91° East 429 494 24,600 1,016 Climbing Chicago Center
Sun 03:18:32 PM 42.1397 -85.6078 90° East 431 496 25,700 1,113 Climbing Chicago Center
Sun 03:19:34 PM 42.1375 -85.4156 91° East 430 495 26,900 1,091 Climbing Chicago Center
Sun 03:20:22 PM 42.1381 -85.3022 90° East 438 504 27,700 1,056 Climbing Cleveland Center
Sun 03:21:22 PM 42.1364 -85.1394 91° East 433 498 28,800 650 Climbing Cleveland Center
Sun 03:22:22 PM 42.1347 -84.9658 91° East 428 493 29,000 100 Climbing Cleveland Center
Sun 03:23:22 PM 42.1347 -84.7978 90° East 428 493 29,000  Level Cleveland Center
Sun 03:24:22 PM 42.1275 -84.6517 94° East 450 518 29,000  Level Cleveland Center
Sun 03:25:22 PM 42.1286 -84.4389 90° East 472 543 29,000 300 Level Cleveland Center
Sun 03:26:22 PM 42.1422 -84.2772 83° East 478 550 29,600 500 Climbing Cleveland Center
Sun 03:27:22 PM 42.1603 -84.1017 82° East 478 550 30,000 200 Climbing Cleveland Center
Sun 03:28:22 PM 42.1822 -83.9233 81° East 478 550 30,000  Level Cleveland Center
Sun 03:29:22 PM 42.2019 -83.7422 82° East 478 550 30,000 450 Level Cleveland Center
Sun 03:30:22 PM 42.2192 -83.5664 82° East 478 550 30,900 500 Climbing Cleveland Center
Sun 03:31:22 PM 42.2306 -83.3650 86° East 478 550 31,000 50 Climbing Cleveland Center
Sun 03:32:22 PM 42.2308 -83.1772 90° East 484 557 31,000  Level Cleveland Center
Sun 03:33:22 PM 42.2308 -82.9892 90° East 490 564 31,000  Level Cleveland Center
Sun 03:34:22 PM 42.2322 -82.8069 89° East 495 570 31,000  Level Cleveland Center
Sun 03:35:22 PM 42.2336 -82.6192 89° East 495 570 31,000  Level Cleveland Center
Sun 03:36:22 PM 42.2328 -82.4339 90° East 495 570 31,000  Level Cleveland Center
Sun 03:37:22 PM 42.2333 -82.2489 90° East 495 570 31,000  Level Cleveland Center
Sun 03:38:22 PM 42.2319 -82.0611 91° East 500 575 31,000  Level Cleveland Center
Sun 03:39:22 PM 42.2317 -81.8928 90° East 493 567 31,000  Level Cleveland Center
Sun 03:40:22 PM 42.2317 -81.7047 90° East 500 575 31,000  Level Cleveland Center
Sun 03:41:22 PM 42.2292 -81.5225 91° East 495 570 31,000  Level Cleveland Center
Sun 03:42:22 PM 42.2286 -81.3319 90° East 495 570 31,000  Level Cleveland Center
Sun 03:43:22 PM 42.2256 -81.1272 91° East 495 570 31,000  Level Cleveland Center
Sun 03:44:22 PM 42.2242 -80.9364 90° East 500 575 31,000  Level Cleveland Center
Sun 03:45:22 PM 42.2119 -80.7569 95° East 495 570 31,000  Level Cleveland Center
Sun 03:46:22 PM 42.1892 -80.5692 99° East 505 581 31,000  Level Cleveland Center
Sun 03:47:22 PM 42.1683 -80.3842 99° East 505 581 31,000  Level Cleveland Center
Sun 03:48:22 PM 42.1489 -80.1994 98° East 500 575 31,000  Level Cleveland Center
Sun 03:49:22 PM 42.1294 -80.0092 98° East 507 583 31,000  Level Cleveland Center
Sun 03:50:22 PM 42.1075 -79.8247 99° East 502 578 31,000  Level Cleveland Center
Sun 03:51:22 PM 42.0853 -79.6403 99° East 502 578 31,000  Level Cleveland Center
Sun 03:52:22 PM 42.0650 -79.4533 98° East 502 578 31,000 -350 Level Cleveland Center
Sun 03:53:22 PM 42.0442 -79.2664 98° East 502 578 30,300 -850 Descending Cleveland Center
Sun 03:54:22 PM 42.0189 -79.0850 101° East 502 578 29,300 -1,000 Descending Cleveland Center
Sun 03:55:22 PM 41.9978 -78.8983 99° East 502 578 28,300 -1,000 Descending Cleveland Center
Sun 03:56:22 PM 41.9719 -78.7119 100° East 502 578 27,300 -1,000 Descending Cleveland Center
Sun 03:57:22 PM 41.9519 -78.5228 98° East 502 578 26,300 -1,000 Descending Cleveland Center
Sun 03:58:22 PM 41.9256 -78.3364 101° East 507 583 25,300 -1,000 Descending Cleveland Center
Sun 03:59:22 PM 41.9008 -78.1478 100° East 507 583 24,300 -730 Descending Cleveland Center
Sun 04:01:31 PM 41.8389 -77.7894 103° East 496 571 23,000 -413 Descending New York Center
Sun 04:02:31 PM 41.7792 -77.6358 117° Southeast 472 543 23,000  Level New York Center
Sun 04:03:29 PM 41.7214 -77.4825 117° Southeast 472 543 23,000  Level New York Center
Sun 04:04:29 PM 41.6797 -77.2950 107° East 466 536 23,000 -298 Level New York Center
Sun 04:05:30 PM 41.6600 -77.1208 99° East 472 543 22,400 -1,279 Descending New York Center
Sun 04:06:31 PM 41.6439 -76.9528 97° East 466 536 20,400 -2,380 Descending New York Center
Sun 04:07:31 PM 41.6275 -76.7847 97° East 461 531 17,600 -2,723 Descending New York Center
Sun 04:08:30 PM 41.6083 -76.6222 99° East 455 524 15,000 -2,269 Descending New York Center
Sun 04:09:30 PM 41.5942 -76.4878 98° East 420 483 13,100 -1,537 Descending New York Center
Sun 04:10:31 PM 41.5792 -76.3644 99° East 366 421 11,900 -1,866 Descending New York Center
Sun 04:11:29 PM 41.5625 -76.2300 99° East 325 374 9,400 -1,513 Descending New York Center
Sun 04:12:30 PM 41.5444 -76.1231 103° East 305 351 8,900 -1,091 Descending New York Center
Sun 04:13:30 PM 41.5114 -76.0236 114° Southeast 293 337 7,200 -1,550 Descending New York Center
Sun 04:14:30 PM 41.4903 -75.9358 108° East 288 331 5,800 -1,438 Descending New York Center
Sun 04:15:31 PM 41.4694 -75.8403 106° East 276 318 4,300 -1,475 Descending New York Center

Login

Don't have an account? Register now (free) for customized features, flight alerts, and more!